sensor_id;sensor_type;location;lat;lon;timestamp;pressure;altitude;pressure_sealevel;temperature;humidity
47716;BME280;33476;50.984;3.538;2024-02-23T00:00:48;99052.34;;;8.82;62.89
47716;BME280;33476;50.984;3.538;2024-02-23T00:03:13;99063.16;;;8.76;62.99
47716;BME280;33476;50.984;3.538;2024-02-23T00:05:38;99071.19;;;8.72;63.21
47716;BME280;33476;50.984;3.538;2024-02-23T00:08:04;99069.31;;;8.75;62.74
47716;BME280;33476;50.984;3.538;2024-02-23T00:10:29;99062.16;;;8.78;62.60
47716;BME280;33476;50.984;3.538;2024-02-23T00:12:55;99047.78;;;8.72;62.77
47716;BME280;33476;50.984;3.538;2024-02-23T00:15:20;99072.13;;;8.71;62.32
47716;BME280;33476;50.984;3.538;2024-02-23T00:17:45;99063.28;;;8.74;62.50
47716;BME280;33476;50.984;3.538;2024-02-23T00:20:11;99079.84;;;8.73;62.38
47716;BME280;33476;50.984;3.538;2024-02-23T00:22:37;99084.44;;;8.69;62.79
47716;BME280;33476;50.984;3.538;2024-02-23T00:25:02;99094.09;;;8.67;62.83
47716;BME280;33476;50.984;3.538;2024-02-23T00:27:28;99092.66;;;8.63;62.99
47716;BME280;33476;50.984;3.538;2024-02-23T00:29:53;99098.13;;;8.59;63.25
47716;BME280;33476;50.984;3.538;2024-02-23T00:32:18;99089.72;;;8.55;63.60
47716;BME280;33476;50.984;3.538;2024-02-23T00:34:44;99096.69;;;8.55;63.49
47716;BME280;33476;50.984;3.538;2024-02-23T00:37:09;99097.72;;;8.52;63.51
47716;BME280;33476;50.984;3.538;2024-02-23T00:39:34;99096.66;;;8.42;63.81
47716;BME280;33476;50.984;3.538;2024-02-23T00:42:01;99093.06;;;8.44;64.33
47716;BME280;33476;50.984;3.538;2024-02-23T00:44:27;99090.66;;;8.54;63.73
47716;BME280;33476;50.984;3.538;2024-02-23T00:46:52;99091.50;;;8.55;64.11
47716;BME280;33476;50.984;3.538;2024-02-23T00:49:17;99099.91;;;8.58;63.71
47716;BME280;33476;50.984;3.538;2024-02-23T00:51:43;99106.88;;;8.58;64.34
47716;BME280;33476;50.984;3.538;2024-02-23T00:54:08;99115.75;;;8.55;64.25
47716;BME280;33476;50.984;3.538;2024-02-23T00:56:34;99098.47;;;8.54;64.73
47716;BME280;33476;50.984;3.538;2024-02-23T00:59:00;99103.78;;;8.53;64.45
47716;BME280;33476;50.984;3.538;2024-02-23T01:01:25;99108.78;;;8.56;64.74
47716;BME280;33476;50.984;3.538;2024-02-23T01:03:51;99101.25;;;8.51;64.91
47716;BME280;33476;50.984;3.538;2024-02-23T01:06:17;99104.19;;;8.47;64.74
47716;BME280;33476;50.984;3.538;2024-02-23T01:08:43;99103.53;;;8.43;65.19
47716;BME280;33476;50.984;3.538;2024-02-23T01:11:08;99104.06;;;8.48;65.42
47716;BME280;33476;50.984;3.538;2024-02-23T01:13:34;99102.84;;;8.54;64.74
47716;BME280;33476;50.984;3.538;2024-02-23T01:15:59;99111.16;;;8.46;65.50
47716;BME280;33476;50.984;3.538;2024-02-23T01:18:24;99106.88;;;8.45;65.21
47716;BME280;33476;50.984;3.538;2024-02-23T01:20:50;99118.13;;;8.46;64.92
47716;BME280;33476;50.984;3.538;2024-02-23T01:23:15;99104.91;;;8.49;64.75
47716;BME280;33476;50.984;3.538;2024-02-23T01:25:40;99103.34;;;8.46;64.97
47716;BME280;33476;50.984;3.538;2024-02-23T01:28:06;99097.72;;;8.39;65.56
47716;BME280;33476;50.984;3.538;2024-02-23T01:30:31;99111.09;;;8.33;65.41
47716;BME280;33476;50.984;3.538;2024-02-23T01:32:56;99107.75;;;8.31;65.82
47716;BME280;33476;50.984;3.538;2024-02-23T01:35:22;99108.22;;;8.38;65.33
47716;BME280;33476;50.984;3.538;2024-02-23T01:37:47;99103.03;;;8.38;65.22
47716;BME280;33476;50.984;3.538;2024-02-23T01:40:13;99113.09;;;8.42;65.45
47716;BME280;33476;50.984;3.538;2024-02-23T01:42:38;99114.25;;;8.38;64.68
47716;BME280;33476;50.984;3.538;2024-02-23T01:45:04;99101.44;;;8.35;65.04
47716;BME280;33476;50.984;3.538;2024-02-23T01:47:30;99099.41;;;8.26;65.47
47716;BME280;33476;50.984;3.538;2024-02-23T01:49:57;99118.38;;;8.28;65.60
47716;BME280;33476;50.984;3.538;2024-02-23T01:52:24;99094.31;;;8.25;65.44
47716;BME280;33476;50.984;3.538;2024-02-23T01:54:50;99117.94;;;8.22;65.11
47716;BME280;33476;50.984;3.538;2024-02-23T01:57:16;99119.25;;;8.14;65.86
47716;BME280;33476;50.984;3.538;2024-02-23T01:59:41;99116.16;;;8.22;65.14
47716;BME280;33476;50.984;3.538;2024-02-23T02:02:07;99102.94;;;8.25;65.78
47716;BME280;33476;50.984;3.538;2024-02-23T02:04:32;99111.16;;;8.19;65.59
47716;BME280;33476;50.984;3.538;2024-02-23T02:06:59;99095.84;;;8.14;66.05
47716;BME280;33476;50.984;3.538;2024-02-23T02:09:26;99095.84;;;8.14;65.51
47716;BME280;33476;50.984;3.538;2024-02-23T02:11:52;99101.69;;;8.18;65.84
47716;BME280;33476;50.984;3.538;2024-02-23T02:14:17;99108.53;;;8.19;66.02
47716;BME280;33476;50.984;3.538;2024-02-23T02:16:43;99104.28;;;8.18;66.18
47716;BME280;33476;50.984;3.538;2024-02-23T02:19:10;99103.88;;;8.24;65.81
47716;BME280;33476;50.984;3.538;2024-02-23T02:21:36;99100.56;;;8.22;65.47
47716;BME280;33476;50.984;3.538;2024-02-23T02:24:02;99110.13;;;8.22;66.21
47716;BME280;33476;50.984;3.538;2024-02-23T02:26:28;99104.94;;;8.22;66.00
47716;BME280;33476;50.984;3.538;2024-02-23T02:28:53;99111.78;;;8.23;65.87
47716;BME280;33476;50.984;3.538;2024-02-23T02:31:19;99108.97;;;8.26;66.13
47716;BME280;33476;50.984;3.538;2024-02-23T02:33:44;99102.22;;;8.23;65.90
47716;BME280;33476;50.984;3.538;2024-02-23T02:36:09;99112.72;;;8.22;66.07
47716;BME280;33476;50.984;3.538;2024-02-23T02:38:36;99106.25;;;8.14;66.39
47716;BME280;33476;50.984;3.538;2024-02-23T02:41:02;99108.03;;;8.14;66.49
47716;BME280;33476;50.984;3.538;2024-02-23T02:43:27;99109.69;;;8.15;66.06
47716;BME280;33476;50.984;3.538;2024-02-23T02:45:53;99112.72;;;8.22;66.35
47716;BME280;33476;50.984;3.538;2024-02-23T02:48:18;99120.63;;;8.20;66.41
47716;BME280;33476;50.984;3.538;2024-02-23T02:50:44;99118.56;;;8.25;66.24
47716;BME280;33476;50.984;3.538;2024-02-23T02:53:10;99108.88;;;8.27;66.07
47716;BME280;33476;50.984;3.538;2024-02-23T02:55:42;99117.09;;;8.21;66.36
47716;BME280;33476;50.984;3.538;2024-02-23T02:58:08;99112.63;;;8.23;66.42
47716;BME280;33476;50.984;3.538;2024-02-23T03:00:34;99117.44;;;8.29;66.20
47716;BME280;33476;50.984;3.538;2024-02-23T03:02:59;99114.19;;;8.26;66.09
47716;BME280;33476;50.984;3.538;2024-02-23T03:05:25;99108.41;;;8.35;66.20
47716;BME280;33476;50.984;3.538;2024-02-23T03:07:50;99117.47;;;8.42;66.06
47716;BME280;33476;50.984;3.538;2024-02-23T03:10:15;99102.56;;;8.31;66.22
47716;BME280;33476;50.984;3.538;2024-02-23T03:12:41;99112.13;;;8.31;66.37
47716;BME280;33476;50.984;3.538;2024-02-23T03:15:07;99114.63;;;8.32;66.05
47716;BME280;33476;50.984;3.538;2024-02-23T03:17:32;99113.78;;;8.32;66.58
47716;BME280;33476;50.984;3.538;2024-02-23T03:19:58;99119.66;;;8.35;66.58
47716;BME280;33476;50.984;3.538;2024-02-23T03:22:24;99114.44;;;8.35;66.61
47716;BME280;33476;50.984;3.538;2024-02-23T03:24:49;99119.47;;;8.38;66.07
47716;BME280;33476;50.984;3.538;2024-02-23T03:27:14;99114.16;;;8.40;66.24
47716;BME280;33476;50.984;3.538;2024-02-23T03:29:40;99113.88;;;8.44;66.02
47716;BME280;33476;50.984;3.538;2024-02-23T03:32:06;99109.66;;;8.42;66.42
47716;BME280;33476;50.984;3.538;2024-02-23T03:34:31;99102.81;;;8.41;66.52
47716;BME280;33476;50.984;3.538;2024-02-23T03:36:56;99095.53;;;8.46;66.27
47716;BME280;33476;50.984;3.538;2024-02-23T03:39:23;99088.69;;;8.45;66.12
47716;BME280;33476;50.984;3.538;2024-02-23T03:41:48;99092.94;;;8.46;66.08
47716;BME280;33476;50.984;3.538;2024-02-23T03:44:14;99093.97;;;8.43;66.31
47716;BME280;33476;50.984;3.538;2024-02-23T03:46:39;99095.66;;;8.44;65.98
47716;BME280;33476;50.984;3.538;2024-02-23T03:49:04;99097.00;;;8.37;66.26
47716;BME280;33476;50.984;3.538;2024-02-23T03:51:30;99098.84;;;8.35;65.99
47716;BME280;33476;50.984;3.538;2024-02-23T03:53:57;99097.81;;;8.38;66.04
47716;BME280;33476;50.984;3.538;2024-02-23T03:56:22;99089.34;;;8.34;66.42
47716;BME280;33476;50.984;3.538;2024-02-23T03:58:48;99086.69;;;8.36;66.32
47716;BME280;33476;50.984;3.538;2024-02-23T04:01:13;99080.44;;;8.38;66.52
47716;BME280;33476;50.984;3.538;2024-02-23T04:03:38;99084.09;;;8.36;66.21
47716;BME280;33476;50.984;3.538;2024-02-23T04:06:04;99095.03;;;8.27;66.51
47716;BME280;33476;50.984;3.538;2024-02-23T04:08:30;99077.66;;;8.27;66.59
47716;BME280;33476;50.984;3.538;2024-02-23T04:10:56;99071.13;;;8.22;66.70
47716;BME280;33476;50.984;3.538;2024-02-23T04:13:21;99059.38;;;8.29;65.81
47716;BME280;33476;50.984;3.538;2024-02-23T04:15:47;99058.22;;;8.33;65.73
47716;BME280;33476;50.984;3.538;2024-02-23T04:18:12;99047.38;;;8.26;65.91
47716;BME280;33476;50.984;3.538;2024-02-23T04:20:37;99055.13;;;8.28;65.97
47716;BME280;33476;50.984;3.538;2024-02-23T04:23:03;99052.19;;;8.20;65.60
47716;BME280;33476;50.984;3.538;2024-02-23T04:25:28;99048.31;;;8.12;65.85
47716;BME280;33476;50.984;3.538;2024-02-23T04:27:54;99068.81;;;8.04;65.75
47716;BME280;33476;50.984;3.538;2024-02-23T04:30:19;99041.31;;;8.00;65.76
47716;BME280;33476;50.984;3.538;2024-02-23T04:32:45;99045.50;;;8.03;66.14
47716;BME280;33476;50.984;3.538;2024-02-23T04:35:10;99056.63;;;8.05;65.85
47716;BME280;33476;50.984;3.538;2024-02-23T04:37:36;99062.44;;;8.08;66.01
47716;BME280;33476;50.984;3.538;2024-02-23T04:40:01;99054.75;;;8.07;65.99
47716;BME280;33476;50.984;3.538;2024-02-23T04:42:27;99058.06;;;8.09;65.73
47716;BME280;33476;50.984;3.538;2024-02-23T04:44:53;99051.72;;;8.00;65.99
47716;BME280;33476;50.984;3.538;2024-02-23T04:47:20;99054.88;;;8.05;65.17
47716;BME280;33476;50.984;3.538;2024-02-23T04:49:45;99060.06;;;8.05;65.59
47716;BME280;33476;50.984;3.538;2024-02-23T04:52:11;99038.94;;;7.97;65.81
47716;BME280;33476;50.984;3.538;2024-02-23T04:54:36;99037.88;;;8.00;65.80
47716;BME280;33476;50.984;3.538;2024-02-23T04:57:02;99035.41;;;7.98;65.57
47716;BME280;33476;50.984;3.538;2024-02-23T04:59:27;99031.84;;;7.99;65.61
47716;BME280;33476;50.984;3.538;2024-02-23T05:01:53;99025.81;;;7.99;65.58
47716;BME280;33476;50.984;3.538;2024-02-23T05:04:18;99038.09;;;7.97;65.19
47716;BME280;33476;50.984;3.538;2024-02-23T05:06:44;99034.47;;;7.99;65.16
47716;BME280;33476;50.984;3.538;2024-02-23T05:09:09;99045.19;;;7.95;65.61
47716;BME280;33476;50.984;3.538;2024-02-23T05:11:35;99030.81;;;7.89;65.43
47716;BME280;33476;50.984;3.538;2024-02-23T05:14:00;99045.66;;;7.87;65.47
47716;BME280;33476;50.984;3.538;2024-02-23T05:16:25;99043.06;;;7.87;65.39
47716;BME280;33476;50.984;3.538;2024-02-23T05:18:51;99036.09;;;7.87;65.46
47716;BME280;33476;50.984;3.538;2024-02-23T05:21:16;99036.44;;;7.69;65.79
47716;BME280;33476;50.984;3.538;2024-02-23T05:23:42;99033.31;;;7.64;65.77
47716;BME280;33476;50.984;3.538;2024-02-23T05:26:08;99035.72;;;7.67;66.07
47716;BME280;33476;50.984;3.538;2024-02-23T05:28:33;99040.31;;;7.76;65.58
47716;BME280;33476;50.984;3.538;2024-02-23T05:30:58;99027.97;;;7.79;65.57
47716;BME280;33476;50.984;3.538;2024-02-23T05:33:23;99032.34;;;7.79;65.38
47716;BME280;33476;50.984;3.538;2024-02-23T05:35:49;99020.34;;;7.76;65.22
47716;BME280;33476;50.984;3.538;2024-02-23T05:38:15;99024.53;;;7.79;65.24
47716;BME280;33476;50.984;3.538;2024-02-23T05:40:41;99028.06;;;7.78;65.05
47716;BME280;33476;50.984;3.538;2024-02-23T05:43:06;99014.03;;;7.80;65.28
47716;BME280;33476;50.984;3.538;2024-02-23T05:45:31;99003.03;;;7.89;65.51
47716;BME280;33476;50.984;3.538;2024-02-23T05:47:57;99010.19;;;7.86;65.68
47716;BME280;33476;50.984;3.538;2024-02-23T05:50:22;98991.16;;;7.85;65.39
47716;BME280;33476;50.984;3.538;2024-02-23T05:52:47;98991.09;;;7.87;65.41
47716;BME280;33476;50.984;3.538;2024-02-23T05:55:13;98990.47;;;7.96;65.45
47716;BME280;33476;50.984;3.538;2024-02-23T05:57:38;98994.63;;;7.99;65.00
47716;BME280;33476;50.984;3.538;2024-02-23T06:00:04;99003.16;;;7.88;65.33
47716;BME280;33476;50.984;3.538;2024-02-23T06:02:30;98996.56;;;7.82;65.38
47716;BME280;33476;50.984;3.538;2024-02-23T06:04:55;99005.41;;;7.80;65.34
47716;BME280;33476;50.984;3.538;2024-02-23T06:07:21;99015.38;;;7.86;65.25
47716;BME280;33476;50.984;3.538;2024-02-23T06:09:52;99009.06;;;7.90;64.97
47716;BME280;33476;50.984;3.538;2024-02-23T06:12:17;98995.69;;;7.96;65.32
47716;BME280;33476;50.984;3.538;2024-02-23T06:14:43;98992.03;;;7.99;65.58
47716;BME280;33476;50.984;3.538;2024-02-23T06:17:08;98999.00;;;7.98;64.89
47716;BME280;33476;50.984;3.538;2024-02-23T06:19:33;98987.78;;;7.98;65.58
47716;BME280;33476;50.984;3.538;2024-02-23T06:21:59;98997.00;;;8.02;65.01
47716;BME280;33476;50.984;3.538;2024-02-23T06:24:24;98996.28;;;8.00;65.10
47716;BME280;33476;50.984;3.538;2024-02-23T06:26:49;99011.59;;;8.04;64.67
47716;BME280;33476;50.984;3.538;2024-02-23T06:29:16;99009.84;;;8.05;65.25
47716;BME280;33476;50.984;3.538;2024-02-23T06:31:41;98997.66;;;8.05;64.69
47716;BME280;33476;50.984;3.538;2024-02-23T06:34:08;99019.41;;;8.04;65.63
47716;BME280;33476;50.984;3.538;2024-02-23T06:36:33;98990.81;;;8.04;65.19
47716;BME280;33476;50.984;3.538;2024-02-23T06:38:59;99000.78;;;8.10;65.72
47716;BME280;33476;50.984;3.538;2024-02-23T06:41:24;98999.94;;;8.10;65.69
47716;BME280;33476;50.984;3.538;2024-02-23T06:43:51;98987.38;;;8.16;65.12
47716;BME280;33476;50.984;3.538;2024-02-23T06:46:19;98998.91;;;8.25;65.69
47716;BME280;33476;50.984;3.538;2024-02-23T06:48:45;99008.09;;;8.31;65.35
47716;BME280;33476;50.984;3.538;2024-02-23T06:51:11;99003.94;;;8.28;65.44
47716;BME280;33476;50.984;3.538;2024-02-23T06:53:36;98994.75;;;8.23;65.44
47716;BME280;33476;50.984;3.538;2024-02-23T06:56:03;99002.78;;;8.20;65.53
47716;BME280;33476;50.984;3.538;2024-02-23T06:58:28;98997.47;;;8.21;65.16
47716;BME280;33476;50.984;3.538;2024-02-23T07:00:54;99001.50;;;8.25;65.33
47716;BME280;33476;50.984;3.538;2024-02-23T07:03:19;98999.25;;;8.21;65.71
47716;BME280;33476;50.984;3.538;2024-02-23T07:05:45;98997.38;;;8.23;65.49
47716;BME280;33476;50.984;3.538;2024-02-23T07:08:11;98998.91;;;8.25;65.51
47716;BME280;33476;50.984;3.538;2024-02-23T07:10:36;98994.44;;;8.27;65.56
47716;BME280;33476;50.984;3.538;2024-02-23T07:13:02;99001.09;;;8.18;65.65
47716;BME280;33476;50.984;3.538;2024-02-23T07:15:27;99005.16;;;8.23;66.23
47716;BME280;33476;50.984;3.538;2024-02-23T07:17:53;99005.16;;;8.23;66.09
47716;BME280;33476;50.984;3.538;2024-02-23T07:20:19;99009.31;;;8.12;66.40
47716;BME280;33476;50.984;3.538;2024-02-23T07:22:45;99014.41;;;8.14;66.13
47716;BME280;33476;50.984;3.538;2024-02-23T07:25:11;99002.25;;;8.14;66.25
47716;BME280;33476;50.984;3.538;2024-02-23T07:27:36;98995.69;;;8.22;66.51
47716;BME280;33476;50.984;3.538;2024-02-23T07:30:02;99002.69;;;8.21;66.07
47716;BME280;33476;50.984;3.538;2024-02-23T07:32:29;99004.00;;;8.14;66.52
47716;BME280;33476;50.984;3.538;2024-02-23T07:34:55;99010.47;;;8.21;66.26
47716;BME280;33476;50.984;3.538;2024-02-23T07:37:20;99005.28;;;8.21;66.47
47716;BME280;33476;50.984;3.538;2024-02-23T07:39:46;99011.91;;;8.25;66.43
47716;BME280;33476;50.984;3.538;2024-02-23T07:42:11;99017.00;;;8.27;66.06
47716;BME280;33476;50.984;3.538;2024-02-23T07:44:39;98999.13;;;8.22;66.49
47716;BME280;33476;50.984;3.538;2024-02-23T07:47:05;99019.84;;;8.24;66.12
47716;BME280;33476;50.984;3.538;2024-02-23T07:49:30;99013.50;;;8.28;66.29
47716;BME280;33476;50.984;3.538;2024-02-23T07:51:55;98993.09;;;8.34;66.04
47716;BME280;33476;50.984;3.538;2024-02-23T07:54:21;99003.94;;;8.41;65.90
47716;BME280;33476;50.984;3.538;2024-02-23T07:56:46;99012.69;;;8.40;66.08
47716;BME280;33476;50.984;3.538;2024-02-23T07:59:11;98997.31;;;8.37;66.35
47716;BME280;33476;50.984;3.538;2024-02-23T08:01:37;98996.97;;;8.41;65.75
47716;BME280;33476;50.984;3.538;2024-02-23T08:04:02;99007.28;;;8.43;66.25
47716;BME280;33476;50.984;3.538;2024-02-23T08:06:28;99026.53;;;8.40;66.38
47716;BME280;33476;50.984;3.538;2024-02-23T08:08:53;99020.28;;;8.43;66.08
47716;BME280;33476;50.984;3.538;2024-02-23T08:11:20;99011.56;;;8.44;65.77
47716;BME280;33476;50.984;3.538;2024-02-23T08:13:45;99045.88;;;8.49;65.95
47716;BME280;33476;50.984;3.538;2024-02-23T08:16:11;99037.47;;;8.46;65.99
47716;BME280;33476;50.984;3.538;2024-02-23T08:18:36;99041.34;;;8.53;65.75
47716;BME280;33476;50.984;3.538;2024-02-23T08:21:02;99046.44;;;8.54;65.63
47716;BME280;33476;50.984;3.538;2024-02-23T08:23:28;99024.78;;;8.54;66.20
47716;BME280;33476;50.984;3.538;2024-02-23T08:25:55;99035.19;;;8.54;65.75
47716;BME280;33476;50.984;3.538;2024-02-23T08:28:22;99031.75;;;8.53;66.08
47716;BME280;33476;50.984;3.538;2024-02-23T08:30:48;99029.66;;;8.58;66.14
47716;BME280;33476;50.984;3.538;2024-02-23T08:33:13;99038.28;;;8.59;66.01
47716;BME280;33476;50.984;3.538;2024-02-23T08:35:39;99042.56;;;8.60;66.32
47716;BME280;33476;50.984;3.538;2024-02-23T08:38:05;99045.66;;;8.52;66.75
47716;BME280;33476;50.984;3.538;2024-02-23T08:40:30;99037.69;;;8.55;66.30
47716;BME280;33476;50.984;3.538;2024-02-23T08:42:55;99045.88;;;8.49;66.50
47716;BME280;33476;50.984;3.538;2024-02-23T08:45:21;99045.47;;;8.55;66.87
47716;BME280;33476;50.984;3.538;2024-02-23T08:47:46;99045.88;;;8.49;66.58
47716;BME280;33476;50.984;3.538;2024-02-23T08:50:11;99054.22;;;8.54;66.80
47716;BME280;33476;50.984;3.538;2024-02-23T08:52:37;99061.31;;;8.65;67.17
47716;BME280;33476;50.984;3.538;2024-02-23T08:55:02;99070.47;;;8.70;66.43
47716;BME280;33476;50.984;3.538;2024-02-23T08:57:28;99050.25;;;8.74;66.63
47716;BME280;33476;50.984;3.538;2024-02-23T08:59:54;99058.78;;;8.76;66.69
47716;BME280;33476;50.984;3.538;2024-02-23T09:02:22;99051.50;;;8.81;66.62
47716;BME280;33476;50.984;3.538;2024-02-23T09:04:48;99051.50;;;8.81;66.85
47716;BME280;33476;50.984;3.538;2024-02-23T09:07:13;99055.34;;;8.76;66.62
47716;BME280;33476;50.984;3.538;2024-02-23T09:09:39;99058.16;;;8.85;66.75
47716;BME280;33476;50.984;3.538;2024-02-23T09:12:05;99055.13;;;8.91;66.46
47716;BME280;33476;50.984;3.538;2024-02-23T09:14:32;99068.97;;;8.92;66.60
47716;BME280;33476;50.984;3.538;2024-02-23T09:16:58;99065.13;;;8.97;66.67
47716;BME280;33476;50.984;3.538;2024-02-23T09:19:23;99073.06;;;8.96;66.50
47716;BME280;33476;50.984;3.538;2024-02-23T09:21:48;99071.41;;;8.95;65.89
47716;BME280;33476;50.984;3.538;2024-02-23T09:24:14;99088.78;;;8.94;66.35
47716;BME280;33476;50.984;3.538;2024-02-23T09:26:40;99084.31;;;8.96;66.00
47716;BME280;33476;50.984;3.538;2024-02-23T09:29:05;99075.44;;;8.99;66.09
47716;BME280;33476;50.984;3.538;2024-02-23T09:31:30;99089.41;;;8.98;66.39
47716;BME280;33476;50.984;3.538;2024-02-23T09:33:57;99086.81;;;8.98;66.46
47716;BME280;33476;50.984;3.538;2024-02-23T09:36:23;99077.22;;;8.98;66.49
47716;BME280;33476;50.984;3.538;2024-02-23T09:38:48;99087.97;;;8.94;66.92
47716;BME280;33476;50.984;3.538;2024-02-23T09:41:19;99088.56;;;8.85;66.89
47716;BME280;33476;50.984;3.538;2024-02-23T09:43:46;99087.31;;;8.90;67.32
47716;BME280;33476;50.984;3.538;2024-02-23T09:46:13;99086.19;;;8.94;67.06
47716;BME280;33476;50.984;3.538;2024-02-23T09:48:40;99111.28;;;8.95;67.15
47716;BME280;33476;50.984;3.538;2024-02-23T09:51:07;99101.16;;;8.91;67.54
47716;BME280;33476;50.984;3.538;2024-02-23T09:53:37;99095.84;;;8.92;67.41
47716;BME280;33476;50.984;3.538;2024-02-23T09:56:03;99103.66;;;8.92;67.37
47716;BME280;33476;50.984;3.538;2024-02-23T09:58:30;99105.53;;;8.90;67.60
47716;BME280;33476;50.984;3.538;2024-02-23T10:01:02;99110.66;;;8.92;67.20
47716;BME280;33476;50.984;3.538;2024-02-23T10:03:28;99117.31;;;8.96;67.84
47716;BME280;33476;50.984;3.538;2024-02-23T10:05:57;99116.16;;;9.00;67.34
47716;BME280;33476;50.984;3.538;2024-02-23T10:08:22;99128.88;;;9.05;67.26
47716;BME280;33476;50.984;3.538;2024-02-23T10:10:47;99111.72;;;9.02;67.32
47716;BME280;33476;50.984;3.538;2024-02-23T10:13:19;99140.03;;;9.07;67.31
47716;BME280;33476;50.984;3.538;2024-02-23T10:15:46;99116.78;;;9.16;67.37
47716;BME280;33476;50.984;3.538;2024-02-23T10:18:12;99134.59;;;9.22;66.90
47716;BME280;33476;50.984;3.538;2024-02-23T10:20:37;99128.03;;;9.29;67.09
47716;BME280;33476;50.984;3.538;2024-02-23T10:23:04;99131.88;;;9.37;66.88
47716;BME280;33476;50.984;3.538;2024-02-23T10:25:29;99134.13;;;9.41;66.63
47716;BME280;33476;50.984;3.538;2024-02-23T10:27:55;99131.81;;;9.49;66.80
47716;BME280;33476;50.984;3.538;2024-02-23T10:30:20;99138.16;;;9.58;66.60
47716;BME280;33476;50.984;3.538;2024-02-23T10:32:46;99153.69;;;9.60;66.31
47716;BME280;33476;50.984;3.538;2024-02-23T10:35:15;99145.50;;;9.53;66.42
47716;BME280;33476;50.984;3.538;2024-02-23T10:37:44;99155.28;;;9.62;66.24
47716;BME280;33476;50.984;3.538;2024-02-23T10:40:14;99164.31;;;9.69;65.94
47716;BME280;33476;50.984;3.538;2024-02-23T10:42:43;99158.47;;;9.66;65.86
47716;BME280;33476;50.984;3.538;2024-02-23T10:45:12;99159.53;;;9.63;65.87
47716;BME280;33476;50.984;3.538;2024-02-23T10:47:39;99160.56;;;9.73;65.59
47716;BME280;33476;50.984;3.538;2024-02-23T10:50:06;99177.13;;;9.72;65.18
47716;BME280;33476;50.984;3.538;2024-02-23T10:52:33;99166.00;;;9.70;65.21
47716;BME280;33476;50.984;3.538;2024-02-23T10:55:00;99173.94;;;9.69;65.37
47716;BME280;33476;50.984;3.538;2024-02-23T10:57:28;99181.13;;;9.65;65.25
47716;BME280;33476;50.984;3.538;2024-02-23T10:59:53;99183.00;;;9.63;65.18
47716;BME280;33476;50.984;3.538;2024-02-23T11:02:20;99184.97;;;9.60;65.01
47716;BME280;33476;50.984;3.538;2024-02-23T11:04:48;99176.00;;;9.64;64.91
47716;BME280;33476;50.984;3.538;2024-02-23T11:07:20;99183.84;;;9.64;65.25
47716;BME280;33476;50.984;3.538;2024-02-23T11:09:52;99179.44;;;9.64;65.13
47716;BME280;33476;50.984;3.538;2024-02-23T11:12:30;99178.00;;;9.60;64.99
47716;BME280;33476;50.984;3.538;2024-02-23T11:14:59;99171.84;;;9.61;64.92
47716;BME280;33476;50.984;3.538;2024-02-23T11:17:30;99174.34;;;9.63;64.79
47716;BME280;33476;50.984;3.538;2024-02-23T11:19:56;99168.25;;;9.75;64.38
47716;BME280;33476;50.984;3.538;2024-02-23T11:22:31;99198.09;;;9.71;64.32
47716;BME280;33476;50.984;3.538;2024-02-23T11:25:00;99183.19;;;9.73;64.74
47716;BME280;33476;50.984;3.538;2024-02-23T11:27:30;99186.31;;;9.78;64.65
47716;BME280;33476;50.984;3.538;2024-02-23T11:30:04;99186.31;;;9.78;65.21
47716;BME280;33476;50.984;3.538;2024-02-23T11:32:41;99175.69;;;9.68;65.51
47716;BME280;33476;50.984;3.538;2024-02-23T11:35:10;99177.44;;;9.68;66.18
47716;BME280;33476;50.984;3.538;2024-02-23T11:37:55;99180.28;;;9.65;66.42
47716;BME280;33476;50.984;3.538;2024-02-23T11:40:31;99185.19;;;9.69;66.45
47716;BME280;33476;50.984;3.538;2024-02-23T11:42:57;99183.19;;;9.73;66.32
47716;BME280;33476;50.984;3.538;2024-02-23T11:45:24;99190.47;;;9.80;66.33
47716;BME280;33476;50.984;3.538;2024-02-23T11:47:50;99190.88;;;9.87;66.40
47716;BME280;33476;50.984;3.538;2024-02-23T11:50:15;99181.75;;;9.93;66.22
47716;BME280;33476;50.984;3.538;2024-02-23T11:52:42;99196.19;;;9.85;66.32
47716;BME280;33476;50.984;3.538;2024-02-23T11:55:07;99193.38;;;9.89;66.16
47716;BME280;33476;50.984;3.538;2024-02-23T11:57:36;99194.91;;;9.91;66.01
47716;BME280;33476;50.984;3.538;2024-02-23T12:00:03;99190.63;;;9.90;66.23
47716;BME280;33476;50.984;3.538;2024-02-23T12:02:28;99188.31;;;9.98;66.15
47716;BME280;33476;50.984;3.538;2024-02-23T12:04:54;99185.41;;;10.03;66.03
47716;BME280;33476;50.984;3.538;2024-02-23T12:07:19;99191.56;;;10.02;66.03
47716;BME280;33476;50.984;3.538;2024-02-23T12:09:46;99186.94;;;10.05;65.87
47716;BME280;33476;50.984;3.538;2024-02-23T12:12:11;99188.50;;;10.08;65.99
47716;BME280;33476;50.984;3.538;2024-02-23T12:14:37;99177.84;;;10.11;66.01
47716;BME280;33476;50.984;3.538;2024-02-23T12:17:02;99178.84;;;10.21;65.53
47716;BME280;33476;50.984;3.538;2024-02-23T12:19:32;99178.22;;;10.30;65.56
47716;BME280;33476;50.984;3.538;2024-02-23T12:22:01;99163.06;;;10.35;65.05
47716;BME280;33476;50.984;3.538;2024-02-23T12:24:26;99162.25;;;10.46;64.97
47716;BME280;33476;50.984;3.538;2024-02-23T12:26:56;99164.06;;;10.57;64.83
47716;BME280;33476;50.984;3.538;2024-02-23T12:29:23;99157.84;;;10.71;64.86
47716;BME280;33476;50.984;3.538;2024-02-23T12:31:48;99159.88;;;10.78;64.19
47716;BME280;33476;50.984;3.538;2024-02-23T12:34:14;99164.03;;;10.81;64.19
47716;BME280;33476;50.984;3.538;2024-02-23T12:36:39;99164.66;;;10.84;63.73
47716;BME280;33476;50.984;3.538;2024-02-23T12:39:05;99165.22;;;10.77;63.88
47716;BME280;33476;50.984;3.538;2024-02-23T12:41:30;99167.91;;;10.64;63.88
47716;BME280;33476;50.984;3.538;2024-02-23T12:43:56;99150.31;;;10.55;63.97
47716;BME280;33476;50.984;3.538;2024-02-23T12:46:21;99145.59;;;10.60;63.80
47716;BME280;33476;50.984;3.538;2024-02-23T12:48:48;99158.91;;;10.68;63.86
47716;BME280;33476;50.984;3.538;2024-02-23T12:51:14;99141.09;;;10.73;63.65
47716;BME280;33476;50.984;3.538;2024-02-23T12:53:40;99148.50;;;10.90;63.47
47716;BME280;33476;50.984;3.538;2024-02-23T12:56:08;99132.59;;;11.05;63.17
47716;BME280;33476;50.984;3.538;2024-02-23T12:58:35;99147.69;;;11.12;62.96
47716;BME280;33476;50.984;3.538;2024-02-23T13:01:01;99140.59;;;11.25;62.78
47716;BME280;33476;50.984;3.538;2024-02-23T13:03:27;99136.75;;;11.41;62.49